createdAt,value
2023-04-16T00:00:29.194Z,40.42
2023-04-16T00:02:56.298Z,42.13
2023-04-16T00:05:23.374Z,41.60
2023-04-16T00:07:52.109Z,43.30
2023-04-16T00:10:19.070Z,41.63
2023-04-16T00:12:45.861Z,41.95
2023-04-16T00:15:12.706Z,41.17
2023-04-16T00:17:39.630Z,42.05
2023-04-16T00:20:07.087Z,43.28
2023-04-16T00:22:33.899Z,42.83
2023-04-16T00:25:00.701Z,40.78
2023-04-16T00:27:27.510Z,40.63
2023-04-16T00:29:54.302Z,40.55
2023-04-16T00:32:21.224Z,42.15
2023-04-16T00:34:48.069Z,39.75
2023-04-16T00:37:14.925Z,42.65
2023-04-16T00:39:41.752Z,41.70
2023-04-16T00:42:08.585Z,42.20
2023-04-16T00:44:36.520Z,41.17
2023-04-16T00:47:04.498Z,40.05
2023-04-16T00:49:31.810Z,39.30
2023-04-16T00:51:58.892Z,43.35
2023-04-16T00:54:26.267Z,41.45
2023-04-16T00:56:53.091Z,40.15
2023-04-16T00:59:20.160Z,40.67
2023-04-16T01:01:47.019Z,41.65
2023-04-16T01:04:15.342Z,43.70
2023-04-16T01:06:42.277Z,42.58
2023-04-16T01:09:11.820Z,41.70
2023-04-16T01:11:38.672Z,43.42
2023-04-16T01:14:05.644Z,44.50
2023-04-16T01:16:32.945Z,41.25
2023-04-16T01:18:59.767Z,44.13
2023-04-16T01:21:26.720Z,40.53
2023-04-16T01:23:53.489Z,42.40
2023-04-16T01:26:20.512Z,40.83
2023-04-16T01:28:47.293Z,42.10
2023-04-16T01:31:14.492Z,41.85
2023-04-16T01:33:41.476Z,39.58
2023-04-16T01:36:08.407Z,40.85
2023-04-16T01:38:35.493Z,41.35
2023-04-16T01:41:02.278Z,41.47
2023-04-16T01:43:29.166Z,43.63
2023-04-16T01:46:23.653Z,43.40
2023-04-16T01:48:50.572Z,39.70
2023-04-16T01:51:17.388Z,45.10
2023-04-16T01:53:44.184Z,41.85
2023-04-16T01:56:11.067Z,39.38
2023-04-16T01:58:38.566Z,40.85
2023-04-16T02:01:05.906Z,41.42
2023-04-16T02:03:33.031Z,41.38
2023-04-16T02:06:01.174Z,44.00
2023-04-16T02:08:28.142Z,41.13
2023-04-16T02:10:56.315Z,41.38
2023-04-16T02:13:23.471Z,41.45
2023-04-16T02:15:51.682Z,42.22
2023-04-16T02:18:18.574Z,42.42
2023-04-16T02:20:47.372Z,41.45
2023-04-16T02:23:17.518Z,39.88
2023-04-16T02:25:46.411Z,42.17
2023-04-16T02:28:15.667Z,41.47
2023-04-16T02:30:43.877Z,44.05
2023-04-16T02:33:12.184Z,43.75
2023-04-16T02:35:40.646Z,42.10
2023-04-16T02:38:08.303Z,43.83
2023-04-16T02:40:35.491Z,42.20
2023-04-16T02:43:02.546Z,44.90
2023-04-16T02:45:31.504Z,42.70
2023-04-16T02:47:58.766Z,43.63
2023-04-16T02:50:25.745Z,42.42
2023-04-16T02:52:52.680Z,45.30
2023-04-16T02:55:19.669Z,44.22
2023-04-16T02:57:46.473Z,43.05
2023-04-16T03:00:13.607Z,46.83
2023-04-16T03:02:40.739Z,45.67
2023-04-16T03:05:08.006Z,46.65
2023-04-16T03:07:35.570Z,45.22
2023-04-16T03:10:02.689Z,46.85
2023-04-16T03:12:29.444Z,44.67
2023-04-16T03:14:56.399Z,47.70
2023-04-16T03:17:23.225Z,42.88
2023-04-16T03:19:50.918Z,46.45
2023-04-16T03:22:18.018Z,46.25
2023-04-16T03:24:44.866Z,43.72
2023-04-16T03:27:11.826Z,46.20
2023-04-16T03:29:39.128Z,46.97
2023-04-16T03:32:06.309Z,47.40
2023-04-16T03:34:33.241Z,46.97
2023-04-16T03:37:00.226Z,46.90
2023-04-16T03:39:27.083Z,45.97
2023-04-16T03:41:53.954Z,43.97
2023-04-16T03:44:20.823Z,45.95
2023-04-16T03:46:47.674Z,43.55
2023-04-16T03:49:14.634Z,45.20
2023-04-16T03:51:41.452Z,42.22
2023-04-16T03:54:08.266Z,42.40
2023-04-16T03:56:35.077Z,45.67
2023-04-16T03:59:01.990Z,45.55
2023-04-16T04:01:28.921Z,44.63
2023-04-16T04:03:55.924Z,45.55
2023-04-16T04:06:22.899Z,45.20
2023-04-16T04:08:49.723Z,44.72
2023-04-16T04:11:16.719Z,45.58
2023-04-16T04:13:43.525Z,45.67
2023-04-16T04:16:10.371Z,45.17
2023-04-16T04:18:37.174Z,44.05
2023-04-16T04:21:07.961Z,47.47
2023-04-16T04:23:36.245Z,46.95
2023-04-16T04:26:05.595Z,47.28
2023-04-16T04:28:32.822Z,45.03
2023-04-16T04:31:00.563Z,47.38
2023-04-16T04:33:27.625Z,45.45
2023-04-16T04:35:55.003Z,46.83
2023-04-16T04:38:25.170Z,47.28
2023-04-16T04:40:52.978Z,45.67
2023-04-16T04:43:23.301Z,46.92
2023-04-16T04:45:50.376Z,45.88
2023-04-16T04:48:17.571Z,46.53
2023-04-16T04:50:45.489Z,47.67
2023-04-16T04:53:14.694Z,44.83
2023-04-16T04:55:41.634Z,47.33
2023-04-16T04:58:09.081Z,47.58
2023-04-16T05:00:37.046Z,46.35
2023-04-16T05:03:06.319Z,46.30
2023-04-16T05:05:33.300Z,44.53
2023-04-16T05:08:00.131Z,46.35
2023-04-16T05:10:27.859Z,46.38
2023-04-16T05:12:54.680Z,47.88
2023-04-16T05:15:21.611Z,43.42
2023-04-16T05:17:48.460Z,48.63
2023-04-16T05:20:15.305Z,46.10
2023-04-16T05:22:42.189Z,43.65
2023-04-16T05:25:09.277Z,44.92
2023-04-16T05:27:37.201Z,41.83
2023-04-16T05:30:04.544Z,44.65
2023-04-16T05:32:31.425Z,44.92
2023-04-16T05:34:58.309Z,42.25
2023-04-16T05:37:25.110Z,43.03
2023-04-16T05:39:51.864Z,43.28
2023-04-16T05:42:18.696Z,41.88
2023-04-16T05:44:45.799Z,43.47
2023-04-16T05:47:12.627Z,40.55
2023-04-16T05:49:39.481Z,39.67
2023-04-16T05:52:07.378Z,39.60
2023-04-16T05:54:34.281Z,41.63
2023-04-16T05:57:02.349Z,39.92
2023-04-16T05:59:30.481Z,41.95
2023-04-16T06:01:58.045Z,38.35
2023-04-16T06:04:24.912Z,41.35
2023-04-16T06:06:51.757Z,41.97
2023-04-16T06:09:19.050Z,42.47
2023-04-16T06:11:46.076Z,40.05
2023-04-16T06:14:12.888Z,38.53
2023-04-16T06:16:39.717Z,37.60
2023-04-16T06:19:06.990Z,38.08
2023-04-16T06:21:33.906Z,36.28
2023-04-16T06:24:01.156Z,37.63
2023-04-16T06:26:28.010Z,35.22
2023-04-16T06:28:54.801Z,37.38
2023-04-16T06:31:21.682Z,35.65
2023-04-16T06:33:48.504Z,35.67
2023-04-16T06:36:16.770Z,33.35
2023-04-16T06:38:43.851Z,33.83
2023-04-16T06:41:11.151Z,32.60
2023-04-16T06:43:38.060Z,33.50
2023-04-16T06:46:04.986Z,32.78
2023-04-16T06:48:31.766Z,32.95
2023-04-16T06:50:58.628Z,32.28
2023-04-16T06:53:25.550Z,32.35
2023-04-16T06:55:52.375Z,31.02
2023-04-16T06:58:19.371Z,29.83
2023-04-16T07:00:46.405Z,31.85
2023-04-16T07:03:13.716Z,31.58
2023-04-16T07:05:40.612Z,28.48
2023-04-16T07:08:07.531Z,31.52
2023-04-16T07:10:34.492Z,32.25
2023-04-16T07:13:01.695Z,30.95
2023-04-16T07:15:28.915Z,30.67
2023-04-16T07:17:55.826Z,30.17
2023-04-16T07:20:22.728Z,30.30
2023-04-16T07:22:49.863Z,30.00
2023-04-16T07:25:16.729Z,29.77
2023-04-16T07:27:43.575Z,29.63
2023-04-16T07:30:10.711Z,28.60
2023-04-16T07:32:37.925Z,28.75
2023-04-16T07:35:05.370Z,28.48
2023-04-16T07:37:32.207Z,29.30
2023-04-16T07:40:00.638Z,28.08
2023-04-16T07:42:28.184Z,30.40
2023-04-16T07:44:55.693Z,28.80
2023-04-16T07:47:23.264Z,29.08
2023-04-16T07:49:50.803Z,28.67
2023-04-16T07:52:17.672Z,27.98
2023-04-16T07:54:44.631Z,27.35
2023-04-16T07:57:12.250Z,26.52
2023-04-16T07:59:39.083Z,27.75
2023-04-16T08:02:06.332Z,27.73
2023-04-16T08:04:33.471Z,26.33
2023-04-16T08:07:00.730Z,27.08
2023-04-16T08:09:28.860Z,26.50
2023-04-16T08:11:55.810Z,26.25
2023-04-16T08:14:22.812Z,26.50
2023-04-16T08:16:49.945Z,27.92
2023-04-16T08:19:17.317Z,27.63
2023-04-16T08:21:44.478Z,27.58
2023-04-16T08:24:11.872Z,26.98
2023-04-16T08:26:38.902Z,25.75
2023-04-16T08:29:08.941Z,24.65
2023-04-16T08:31:36.534Z,26.27
2023-04-16T08:34:03.512Z,25.15
2023-04-16T08:36:31.282Z,23.92
2023-04-16T08:38:58.350Z,25.27
2023-04-16T08:41:26.691Z,23.52
2023-04-16T08:43:56.759Z,24.33
2023-04-16T08:46:26.701Z,24.67
2023-04-16T08:48:58.160Z,23.38
2023-04-16T08:51:29.829Z,24.15
2023-04-16T08:54:12.166Z,23.75
2023-04-16T08:56:42.944Z,23.05
2023-04-16T08:59:10.813Z,21.23
2023-04-16T09:01:39.745Z,21.25
2023-04-16T09:04:07.726Z,20.80
2023-04-16T09:06:36.483Z,20.73
2023-04-16T09:09:05.714Z,20.40
2023-04-16T09:11:32.910Z,19.75
2023-04-16T09:14:00.832Z,19.10
2023-04-16T09:16:30.851Z,18.65
2023-04-16T09:18:57.753Z,18.33
2023-04-16T09:21:26.551Z,18.65
2023-04-16T09:23:54.020Z,18.38
2023-04-16T09:26:21.852Z,17.95
2023-04-16T09:28:50.856Z,18.00
2023-04-16T09:31:19.812Z,18.48
2023-04-16T09:34:02.606Z,17.55
2023-04-16T09:36:30.050Z,17.95
2023-04-16T09:38:58.082Z,18.05
2023-04-16T09:41:29.704Z,17.48
2023-04-16T09:43:56.989Z,18.13
2023-04-16T09:46:36.224Z,17.25
2023-04-16T09:49:21.273Z,16.65
2023-04-16T09:51:54.630Z,16.35
2023-04-16T09:54:21.460Z,15.55
2023-04-16T09:56:48.272Z,16.90
2023-04-16T09:59:22.968Z,15.75
2023-04-16T10:01:51.031Z,16.00
2023-04-16T10:04:18.018Z,15.80
2023-04-16T10:06:47.461Z,16.90
2023-04-16T10:09:14.305Z,16.30
2023-04-16T10:11:41.365Z,16.98
2023-04-16T10:14:08.971Z,16.45
2023-04-16T10:16:36.399Z,15.73
2023-04-16T10:19:03.437Z,15.77
2023-04-16T10:21:34.120Z,15.38
2023-04-16T10:24:01.879Z,16.20
2023-04-16T10:26:30.654Z,15.75
2023-04-16T10:28:58.715Z,16.38
2023-04-16T10:31:27.269Z,15.35
2023-04-16T10:33:54.761Z,15.30
2023-04-16T10:36:26.636Z,15.90
2023-04-16T10:38:57.499Z,15.40
2023-04-16T10:41:28.180Z,16.80
2023-04-16T10:44:09.953Z,17.23
2023-04-16T10:46:41.503Z,15.30
2023-04-16T10:49:19.620Z,15.32
2023-04-16T10:51:56.725Z,16.10
2023-04-16T10:54:31.347Z,15.18
2023-04-16T10:57:05.186Z,15.15
2023-04-16T10:59:38.464Z,17.17
2023-04-16T11:02:12.969Z,15.52
2023-04-16T11:04:44.187Z,14.85
2023-04-16T11:07:17.038Z,16.15
2023-04-16T11:10:00.592Z,15.73
2023-04-16T11:12:33.639Z,15.68
2023-04-16T11:17:32.023Z,15.40
2023-04-16T11:19:59.228Z,14.45
2023-04-16T11:22:26.589Z,15.13
2023-04-16T11:24:57.301Z,14.35
2023-04-16T11:27:24.752Z,14.38
2023-04-16T11:30:02.558Z,15.27
2023-04-16T11:32:35.625Z,14.02
2023-04-16T11:35:05.296Z,13.52
2023-04-16T11:37:37.805Z,13.07
2023-04-16T11:40:09.620Z,13.45
2023-04-16T11:42:37.785Z,13.98
2023-04-16T11:45:05.157Z,14.57
2023-04-16T11:47:32.420Z,15.07
2023-04-16T11:50:25.756Z,13.52
2023-04-16T11:52:55.264Z,14.90
2023-04-16T11:55:23.296Z,14.38
2023-04-16T11:57:51.586Z,12.60
2023-04-16T12:00:24.461Z,13.50
2023-04-16T12:05:35.219Z,12.60
2023-04-16T12:08:10.126Z,13.85
2023-04-16T12:10:52.344Z,13.15
2023-04-16T12:13:19.844Z,13.40
2023-04-16T12:15:54.298Z,13.52
2023-04-16T12:18:23.196Z,13.63
2023-04-16T12:20:53.534Z,13.80
2023-04-16T12:23:27.188Z,13.57
2023-04-16T12:26:02.340Z,13.07
2023-04-16T12:28:31.906Z,12.90
2023-04-16T12:30:59.263Z,13.45
2023-04-16T12:33:26.236Z,13.70
2023-04-16T12:35:53.222Z,12.30
2023-04-16T12:38:22.790Z,12.25
2023-04-16T12:40:51.108Z,11.50
2023-04-16T12:43:18.208Z,13.15
2023-04-16T12:45:45.538Z,13.07
2023-04-16T12:48:12.376Z,12.15
2023-04-16T12:50:39.817Z,13.65
2023-04-16T12:53:06.847Z,13.23
2023-04-16T12:55:34.999Z,12.35
2023-04-16T12:58:01.867Z,12.00
2023-04-16T13:00:28.826Z,13.13
2023-04-16T13:02:56.262Z,12.10
2023-04-16T13:05:23.164Z,13.23
2023-04-16T13:07:50.237Z,12.63
2023-04-16T13:10:17.412Z,11.43
2023-04-16T13:12:44.398Z,12.60
2023-04-16T13:15:11.507Z,11.68
2023-04-16T13:17:38.427Z,12.00
2023-04-16T13:20:05.954Z,12.00
2023-04-16T13:22:33.702Z,11.45
2023-04-16T13:25:00.602Z,10.38
2023-04-16T13:27:27.475Z,11.73
2023-04-16T13:29:54.339Z,10.50
2023-04-16T13:32:21.548Z,11.10
2023-04-16T13:34:48.356Z,10.18
2023-04-16T13:37:15.302Z,9.77
2023-04-16T13:39:42.146Z,9.95
2023-04-16T13:42:08.979Z,10.15
2023-04-16T13:44:35.771Z,9.90
2023-04-16T13:47:02.834Z,10.52
2023-04-16T13:49:31.486Z,8.73
2023-04-16T13:51:59.406Z,9.27
2023-04-16T13:54:26.418Z,9.55
2023-04-16T13:56:53.293Z,9.52
2023-04-16T13:59:20.834Z,9.98
2023-04-16T14:01:47.743Z,10.52
2023-04-16T14:04:14.751Z,11.30
2023-04-16T14:06:41.684Z,11.05
2023-04-16T14:09:10.929Z,11.95
2023-04-16T14:11:38.314Z,11.25
2023-04-16T14:14:05.446Z,12.38
2023-04-16T14:16:32.364Z,12.35
2023-04-16T14:18:59.620Z,12.68
2023-04-16T14:21:27.336Z,13.27
2023-04-16T14:23:54.224Z,12.38
2023-04-16T14:26:21.075Z,11.40
2023-04-16T14:28:48.406Z,12.98
2023-04-16T14:31:17.162Z,13.60
2023-04-16T14:33:44.142Z,13.02
2023-04-16T14:36:11.541Z,13.30
2023-04-16T14:38:38.503Z,12.70
2023-04-16T14:41:05.377Z,13.50
2023-04-16T14:43:32.238Z,14.50
2023-04-16T14:46:00.062Z,13.30
2023-04-16T14:48:27.016Z,12.82
2023-04-16T14:50:54.100Z,12.77
2023-04-16T14:53:23.014Z,13.27
2023-04-16T14:55:49.986Z,13.05
2023-04-16T14:58:16.772Z,13.63
2023-04-16T15:00:43.800Z,13.82
2023-04-16T15:03:11.233Z,14.02
2023-04-16T15:05:38.954Z,15.98
2023-04-16T15:08:06.138Z,15.15
2023-04-16T15:10:33.074Z,14.60
2023-04-16T15:12:59.925Z,13.95
2023-04-16T15:15:29.257Z,15.70
2023-04-16T15:18:00.356Z,14.13
2023-04-16T15:20:27.393Z,14.27
2023-04-16T15:22:54.443Z,14.90
2023-04-16T15:25:21.269Z,13.85
2023-04-16T15:27:48.063Z,14.10
2023-04-16T15:30:16.829Z,13.57
2023-04-16T15:32:47.082Z,12.52
2023-04-16T15:35:14.802Z,13.05
2023-04-16T15:37:41.708Z,13.23
2023-04-16T15:40:08.669Z,12.23
2023-04-16T15:42:35.592Z,12.38
2023-04-16T15:45:02.567Z,11.32
2023-04-16T15:47:29.435Z,12.18
2023-04-16T15:49:58.833Z,11.35
2023-04-16T15:52:25.837Z,11.85
2023-04-16T15:54:52.666Z,11.55
2023-04-16T15:57:19.830Z,11.90
2023-04-16T16:00:03.201Z,12.40
2023-04-16T16:02:37.410Z,14.45
2023-04-16T16:05:04.626Z,14.45
2023-04-16T16:07:31.775Z,13.30
2023-04-16T16:09:58.601Z,12.60
2023-04-16T16:12:25.436Z,13.82
2023-04-16T16:14:52.716Z,14.13
2023-04-16T16:17:20.480Z,11.65
2023-04-16T16:19:47.726Z,11.60
2023-04-16T16:22:15.990Z,12.70
2023-04-16T16:24:43.253Z,12.48
2023-04-16T16:27:12.736Z,12.65
2023-04-16T16:29:39.525Z,12.10
2023-04-16T16:32:06.552Z,12.93
2023-04-16T16:34:35.469Z,13.73
2023-04-16T16:37:02.355Z,13.18
2023-04-16T16:39:29.179Z,12.13
2023-04-16T16:41:56.870Z,14.13
2023-04-16T16:44:24.045Z,13.63
2023-04-16T16:46:51.644Z,13.23
2023-04-16T16:49:19.113Z,12.45
2023-04-16T16:51:46.908Z,13.73
2023-04-16T16:54:13.885Z,13.75
2023-04-16T16:56:42.711Z,12.45
2023-04-16T16:59:10.054Z,13.43
2023-04-16T17:01:38.012Z,14.02
2023-04-16T17:04:05.160Z,13.18
2023-04-16T17:06:33.256Z,12.85
2023-04-16T17:09:00.942Z,13.65
2023-04-16T17:11:29.300Z,13.35
2023-04-16T17:13:56.371Z,12.93
2023-04-16T17:16:24.026Z,13.15
2023-04-16T17:18:51.195Z,13.13
2023-04-16T17:21:18.026Z,13.38
2023-04-16T17:23:44.885Z,15.30
2023-04-16T17:26:14.782Z,14.27
2023-04-16T17:28:41.699Z,14.23
2023-04-16T17:31:08.643Z,14.82
2023-04-16T17:33:35.836Z,15.13
2023-04-16T17:36:02.719Z,14.73
2023-04-16T17:38:29.924Z,15.45
2023-04-16T17:40:58.559Z,15.10
2023-04-16T17:43:25.433Z,13.52
2023-04-16T17:45:52.283Z,14.85
2023-04-16T17:48:19.191Z,13.88
2023-04-16T17:50:46.166Z,14.25
2023-04-16T17:53:12.981Z,12.60
2023-04-16T17:55:40.054Z,14.82
2023-04-16T17:58:06.860Z,13.23
2023-04-16T18:00:33.785Z,13.43
2023-04-16T18:03:00.824Z,13.98
2023-04-16T18:05:27.767Z,15.55
2023-04-16T18:07:55.839Z,15.20
2023-04-16T18:10:25.264Z,13.68
2023-04-16T18:12:53.641Z,15.00
2023-04-16T18:15:20.552Z,14.73
2023-04-16T18:17:47.461Z,14.95
2023-04-16T18:20:19.300Z,14.98
2023-04-16T18:22:46.523Z,14.70
2023-04-16T18:25:13.583Z,15.63
2023-04-16T18:27:40.437Z,16.50
2023-04-16T18:30:07.824Z,16.42
2023-04-16T18:32:37.410Z,16.52
2023-04-16T18:35:05.884Z,16.27
2023-04-16T18:37:33.559Z,17.65
2023-04-16T18:40:00.385Z,17.98
2023-04-16T18:42:30.376Z,17.70
2023-04-16T18:44:59.341Z,19.15
2023-04-16T18:47:26.489Z,17.95
2023-04-16T18:49:53.401Z,19.15
2023-04-16T18:52:20.337Z,18.35
2023-04-16T18:54:47.178Z,19.13
2023-04-16T18:57:17.265Z,20.15
2023-04-16T18:59:47.264Z,18.40
2023-04-16T19:02:14.353Z,21.00
2023-04-16T19:04:41.907Z,20.60
2023-04-16T19:07:11.305Z,21.15
2023-04-16T19:09:38.154Z,21.35
2023-04-16T19:12:05.143Z,19.90
2023-04-16T19:14:31.964Z,21.48
2023-04-16T19:16:58.869Z,20.65
2023-04-16T19:19:26.924Z,22.63
2023-04-16T19:21:55.750Z,21.75
2023-04-16T19:24:23.575Z,20.70
2023-04-16T19:26:52.721Z,19.77
2023-04-16T19:29:19.642Z,21.33
2023-04-16T19:31:47.209Z,21.55
2023-04-16T19:34:15.423Z,20.60
2023-04-16T19:36:42.357Z,22.35
2023-04-16T19:39:09.594Z,21.17
2023-04-16T19:41:39.230Z,21.88
2023-04-16T19:44:06.898Z,21.17
2023-04-16T19:46:34.611Z,21.67
2023-04-16T19:49:01.479Z,22.08
2023-04-16T19:51:29.613Z,22.75
2023-04-16T19:53:59.070Z,20.77
2023-04-16T19:56:26.423Z,22.85
2023-04-16T19:58:55.850Z,21.95
2023-04-16T20:01:23.206Z,23.13
2023-04-16T20:03:53.086Z,24.15
2023-04-16T20:06:20.319Z,21.60
2023-04-16T20:08:47.161Z,21.70
2023-04-16T20:11:15.234Z,21.65
2023-04-16T20:13:43.225Z,22.50
2023-04-16T20:16:13.768Z,21.88
2023-04-16T20:18:43.652Z,20.42
2023-04-16T20:21:10.922Z,21.10
2023-04-16T20:23:37.957Z,20.30
2023-04-16T20:26:04.921Z,21.38
2023-04-16T20:28:32.032Z,22.15
2023-04-16T20:30:59.137Z,20.85
2023-04-16T20:33:26.046Z,22.25
2023-04-16T20:35:52.870Z,22.40
2023-04-16T20:38:23.824Z,22.65
2023-04-16T20:41:06.186Z,22.73
2023-04-16T20:43:38.572Z,22.63
2023-04-16T20:46:06.070Z,22.45
2023-04-16T20:48:33.517Z,23.00
2023-04-16T20:51:02.799Z,21.70
2023-04-16T20:53:31.556Z,23.23
2023-04-16T20:56:01.561Z,22.33
2023-04-16T20:58:29.097Z,22.65
2023-04-16T21:00:57.511Z,23.02
2023-04-16T21:03:25.029Z,22.55
2023-04-16T21:05:53.889Z,22.10
2023-04-16T21:08:24.429Z,22.77
2023-04-16T21:10:51.564Z,21.95
2023-04-16T21:13:20.705Z,22.17
2023-04-16T21:15:47.791Z,22.77
2023-04-16T21:18:14.781Z,23.15
2023-04-16T21:20:41.626Z,23.17
2023-04-16T21:23:16.456Z,22.98
2023-04-16T21:25:43.607Z,23.58
2023-04-16T21:28:16.594Z,22.48
2023-04-16T21:30:43.420Z,22.85
2023-04-16T21:33:11.854Z,23.10
2023-04-16T21:35:38.625Z,23.27
2023-04-16T21:38:05.419Z,22.65
2023-04-16T21:40:32.440Z,24.60
2023-04-16T21:42:59.287Z,23.52
2023-04-16T21:45:26.154Z,21.25
2023-04-16T21:47:53.118Z,22.98
2023-04-16T21:50:20.055Z,24.30
2023-04-16T21:52:46.901Z,22.85
2023-04-16T21:55:16.880Z,24.10
2023-04-16T21:57:43.744Z,24.42
2023-04-16T22:00:14.267Z,24.63
2023-04-16T22:02:43.367Z,24.20
2023-04-16T22:05:11.326Z,26.63
2023-04-16T22:07:38.596Z,25.00
2023-04-16T22:10:06.784Z,26.25
2023-04-16T22:12:37.620Z,25.52
2023-04-16T22:15:05.828Z,25.77
2023-04-16T22:17:34.119Z,29.05
2023-04-16T22:20:08.971Z,27.90
2023-04-16T22:22:38.501Z,30.83
2023-04-16T22:25:05.988Z,31.15
2023-04-16T22:27:33.646Z,32.20
2023-04-16T22:30:01.551Z,34.00
2023-04-16T22:32:30.203Z,36.75
2023-04-16T22:34:57.193Z,35.30
2023-04-16T22:37:24.087Z,36.20
2023-04-16T22:39:50.888Z,32.20
2023-04-16T22:42:17.781Z,37.00
2023-04-16T22:44:44.601Z,37.15
2023-04-16T22:47:11.461Z,35.90
2023-04-16T22:49:38.257Z,37.42
2023-04-16T22:52:05.506Z,36.35
2023-04-16T22:54:32.911Z,37.15
2023-04-16T22:56:59.875Z,39.40
2023-04-16T22:59:26.828Z,38.63
2023-04-16T23:01:53.865Z,38.78
2023-04-16T23:04:20.781Z,40.08
2023-04-16T23:06:47.694Z,39.78
2023-04-16T23:09:14.680Z,37.03
2023-04-16T23:11:41.627Z,39.35
2023-04-16T23:14:08.498Z,38.85
2023-04-16T23:16:35.554Z,40.58
2023-04-16T23:19:02.382Z,39.45
2023-04-16T23:21:29.234Z,40.88
2023-04-16T23:23:57.151Z,39.38
2023-04-16T23:26:23.990Z,41.55
2023-04-16T23:28:50.811Z,39.85
2023-04-16T23:31:17.727Z,40.45
2023-04-16T23:33:44.769Z,39.42
2023-04-16T23:36:11.561Z,41.00
2023-04-16T23:38:38.427Z,40.03
2023-04-16T23:41:05.466Z,40.08
2023-04-16T23:43:32.315Z,40.83
2023-04-16T23:45:59.286Z,41.08
2023-04-16T23:48:26.117Z,39.72
2023-04-16T23:50:53.007Z,40.95
2023-04-16T23:53:19.979Z,40.55
2023-04-16T23:55:46.896Z,39.95
2023-04-16T23:58:13.706Z,39.60
